Decoded Metar for LEBL (BARCELONA in SPAIN) (IATA:BCN) | Meteo·Mobile Aviation Weather
aviador You're here:

LEBL Decoded Metar

BARCELONA in SPAIN
Report Time2019-03-19 18:30:00
UTC Time2019-03-19 18:44:36
Flight Rules vfr VFR
WindVRB at 02 kt
Visibility9999 m
Phenomena:N/A
Clouds:Few 055 Hf
Expected CloudBase > 3,200 ft AGL from Temp-Dew spread
CeilingNone
Temp13°C (ISA -2)
Dew Point05°C (59% RH)
AAT11.2°C
QNH1024 hPa
Density Alt-466 ft
Elevation20 ft
Report Wrong Elevation
Raw Report
LEBL 191830Z VRB02KT 9999 FEW055 13/05 Q1024 NOSIG=

Extra information for LEBL:More info

Metar Taf Metar & Taf Last 4 Metars F.Rules Stats Wind Profile Meteogram Temp Stats Airport Information Weather charts Add Link Nearby VenuesMetar ALERT Operation Metar Decoded Social comments